Maple Falls, Washington
Current Conditions -  °F | °C
As of 4:00 PM on Saturday 20 Dec 2014 (Local Time) from CYXX Reporting Station
Moderate Rain Moderate Rain  
Wind Chill: 40°   Ceiling: 3500
Heat Index: 43°   Visibility: 8mi
Dew Point: 43°   Wind: 5mph
Humidity: 100%   Direction: 360°N
Pressure: 29.41"   Gusts: NA
Location:  48.92°N, 122.08°W
Report Text: CYXX 210000Z 36004KT 8SM RA FEW010 OVC035 06/06 A2941 RMK SF2SC6 PRESFR SLP960
Loading
Personal Weather Stations






























Interactive Weather Map New forecast layout! Learn more

10-Day Weather Forecast

Advertisements
Track Severe Weather on mobile